createdAt,value
2022-12-09T00:03:58.410Z,10.25
2022-12-09T00:09:00.617Z,10.38
2022-12-09T00:14:02.732Z,10.13
2022-12-09T00:19:04.787Z,9.98
2022-12-09T00:24:08.024Z,9.90
2022-12-09T00:29:11.368Z,9.40
2022-12-09T00:34:14.731Z,9.32
2022-12-09T00:39:16.821Z,9.73
2022-12-09T00:44:19.158Z,10.00
2022-12-09T00:49:21.292Z,9.60
2022-12-09T00:54:23.106Z,9.52
2022-12-09T00:59:26.031Z,8.68
2022-12-09T01:04:28.313Z,9.18
2022-12-09T01:09:30.328Z,8.38
2022-12-09T01:14:32.470Z,8.73
2022-12-09T01:19:34.457Z,8.40
2022-12-09T01:24:36.829Z,7.97
2022-12-09T01:29:38.885Z,7.53
2022-12-09T01:34:40.953Z,6.53
2022-12-09T01:39:43.833Z,6.35
2022-12-09T01:45:19.873Z,5.65
2022-12-09T01:50:22.170Z,5.30
2022-12-09T01:55:25.264Z,4.93
2022-12-09T02:00:27.503Z,4.38
2022-12-09T02:05:32.660Z,3.78
2022-12-09T02:10:37.088Z,5.00
2022-12-09T02:15:50.345Z,4.00
2022-12-09T02:21:05.746Z,4.43
2022-12-09T02:26:24.174Z,4.00
2022-12-09T02:32:06.859Z,4.30
2022-12-09T02:37:20.898Z,4.00
2022-12-09T02:42:32.394Z,4.00
2022-12-09T02:47:41.553Z,4.30
2022-12-09T02:52:47.830Z,4.00
2022-12-09T02:57:57.729Z,4.28
2022-12-09T03:03:03.802Z,4.28
2022-12-09T03:08:05.729Z,4.32
2022-12-09T03:13:18.287Z,3.67
2022-12-09T03:18:22.322Z,4.38
2022-12-09T03:23:26.809Z,5.13
2022-12-09T03:28:33.543Z,5.00
2022-12-09T03:33:35.544Z,5.73
2022-12-09T03:38:42.107Z,7.38
2022-12-09T03:43:52.340Z,7.15
2022-12-09T03:48:54.266Z,6.25
2022-12-09T03:54:30.965Z,6.68
2022-12-09T03:59:35.995Z,6.78
2022-12-09T04:04:42.268Z,6.80
2022-12-09T04:09:44.623Z,7.00
2022-12-09T04:14:46.539Z,6.22
2022-12-09T04:19:48.598Z,6.95
2022-12-09T04:24:50.371Z,6.53
2022-12-09T04:29:52.110Z,6.95
2022-12-09T04:34:54.308Z,7.00
2022-12-09T04:39:56.355Z,7.13
2022-12-09T04:44:58.138Z,7.07
2022-12-09T04:50:00.624Z,7.57
2022-12-09T04:55:02.711Z,6.68
2022-12-09T05:00:07.317Z,6.82
2022-12-09T05:05:09.857Z,7.53
2022-12-09T05:10:12.121Z,6.90
2022-12-09T05:15:14.623Z,6.60
2022-12-09T05:20:17.099Z,6.22
2022-12-09T05:25:19.237Z,7.10
2022-12-09T05:30:21.259Z,6.93
2022-12-09T05:35:23.210Z,8.00
2022-12-09T05:40:25.407Z,7.57
2022-12-09T05:45:27.398Z,33.88
2022-12-09T05:50:29.608Z,23.90
2022-12-09T05:55:32.745Z,21.08
2022-12-09T06:00:34.684Z,28.02
2022-12-09T06:05:37.713Z,9.85
2022-12-09T06:10:41.336Z,11.52
2022-12-09T06:15:43.779Z,10.30
2022-12-09T06:20:46.638Z,9.40
2022-12-09T06:25:48.532Z,8.88
2022-12-09T06:30:50.624Z,7.93
2022-12-09T06:35:52.785Z,7.30
2022-12-09T06:40:55.324Z,15.75
2022-12-09T06:45:57.187Z,14.60
2022-12-09T06:50:59.858Z,12.07
2022-12-09T06:56:11.488Z,9.00
2022-12-09T07:01:23.093Z,8.73
2022-12-09T07:06:33.650Z,9.10
2022-12-09T07:11:36.819Z,20.75
2022-12-09T07:16:39.374Z,17.95
2022-12-09T07:21:41.256Z,9.70
2022-12-09T07:26:43.384Z,9.68
2022-12-09T07:31:45.585Z,11.02
2022-12-09T07:36:47.523Z,15.25
2022-12-09T07:41:57.750Z,10.32
2022-12-09T07:47:04.134Z,7.78
2022-12-09T07:52:06.397Z,7.03
2022-12-09T07:57:08.749Z,7.18
2022-12-09T08:02:10.663Z,8.05
2022-12-09T08:07:13.881Z,6.70
2022-12-09T08:12:15.940Z,7.22
2022-12-09T08:17:18.581Z,8.65
2022-12-09T08:22:23.654Z,8.48
2022-12-09T08:27:26.035Z,16.67
2022-12-09T08:32:28.087Z,12.02
2022-12-09T08:37:30.472Z,13.95
2022-12-09T08:42:32.409Z,10.18
2022-12-09T08:47:34.698Z,11.02
2022-12-09T08:52:40.513Z,13.07
2022-12-09T08:57:43.224Z,18.33
2022-12-09T09:02:45.708Z,14.98
2022-12-09T09:07:47.868Z,15.07
2022-12-09T09:12:50.023Z,14.20
2022-12-09T09:17:53.539Z,13.65
2022-12-09T09:23:02.608Z,20.35
2022-12-09T09:28:05.087Z,15.40
2022-12-09T09:33:08.687Z,13.80
2022-12-09T09:38:10.754Z,18.85
2022-12-09T09:43:18.256Z,13.02
2022-12-09T09:48:23.958Z,12.63
2022-12-09T09:53:30.872Z,12.75
2022-12-09T09:59:08.822Z,15.75
2022-12-09T10:04:46.132Z,14.95
2022-12-09T10:09:57.657Z,17.65
2022-12-09T10:15:41.276Z,12.30
2022-12-09T10:20:45.912Z,13.05
2022-12-09T10:25:52.828Z,16.40
2022-12-09T10:30:55.962Z,16.45
2022-12-09T10:36:00.107Z,14.45
2022-12-09T10:41:12.476Z,13.57
2022-12-09T10:46:22.083Z,14.85
2022-12-09T10:51:32.015Z,13.77
2022-12-09T10:56:37.751Z,12.18
2022-12-09T11:01:53.853Z,14.25
2022-12-09T11:07:03.295Z,14.95
2022-12-09T11:12:08.067Z,13.45
2022-12-09T11:17:24.288Z,12.52
2022-12-09T11:22:40.234Z,12.75
2022-12-09T11:27:51.525Z,16.90
2022-12-09T11:33:21.256Z,13.57
2022-12-09T11:38:42.337Z,13.05
2022-12-09T11:43:44.129Z,13.02
2022-12-09T11:48:56.757Z,13.25
2022-12-09T11:54:13.410Z,13.98
2022-12-09T11:59:34.769Z,15.82
2022-12-09T12:04:51.312Z,13.73
2022-12-09T12:09:56.310Z,13.23
2022-12-09T12:15:09.599Z,14.30
2022-12-09T12:20:13.224Z,13.60
2022-12-09T12:26:08.261Z,13.30
2022-12-09T12:31:37.401Z,13.95
2022-12-09T12:36:47.959Z,14.95
2022-12-09T12:42:26.442Z,12.27
2022-12-09T12:53:00.806Z,12.13
2022-12-09T12:58:16.763Z,11.67
2022-12-09T13:03:31.524Z,11.70
2022-12-09T13:08:43.639Z,12.00
2022-12-09T13:13:54.227Z,14.18
2022-12-09T13:19:22.320Z,13.02
2022-12-09T13:29:55.694Z,13.95
2022-12-09T13:35:13.722Z,14.50
2022-12-09T13:40:21.586Z,19.67
2022-12-09T13:45:36.162Z,15.70
2022-12-09T13:50:42.333Z,17.45
2022-12-09T13:56:04.491Z,13.77
2022-12-09T14:01:12.319Z,14.23
2022-12-09T14:06:27.493Z,16.05
2022-12-09T14:11:42.841Z,14.93
2022-12-09T14:16:44.680Z,14.48
2022-12-09T14:22:19.171Z,14.40
2022-12-09T14:27:31.767Z,15.85
2022-12-09T14:32:53.114Z,13.35
2022-12-09T14:38:27.436Z,15.07
2022-12-09T14:44:00.470Z,14.20
2022-12-09T14:49:21.008Z,35.47
2022-12-09T14:54:47.385Z,14.38
2022-12-09T14:59:52.411Z,17.05
2022-12-09T15:04:55.035Z,15.20
2022-12-09T15:10:08.001Z,15.75
2022-12-09T15:15:10.259Z,13.35
2022-12-09T15:20:27.684Z,14.55
2022-12-09T15:25:29.950Z,14.48
2022-12-09T15:30:37.190Z,14.77
2022-12-09T15:35:39.064Z,16.15
2022-12-09T15:41:03.644Z,16.38
2022-12-09T15:46:06.101Z,15.80
2022-12-09T15:51:15.798Z,17.42
2022-12-09T15:56:33.954Z,18.05
2022-12-09T16:01:36.824Z,16.88
2022-12-09T16:06:38.684Z,16.50
2022-12-09T16:11:46.130Z,15.63
2022-12-09T16:16:51.708Z,33.13
2022-12-09T16:21:59.928Z,18.88
2022-12-09T16:27:05.391Z,16.92
2022-12-09T16:32:16.291Z,17.80
2022-12-09T16:37:43.581Z,17.58
2022-12-09T16:42:45.588Z,20.17
2022-12-09T16:47:47.822Z,19.55
2022-12-09T16:52:49.986Z,17.42
2022-12-09T16:57:52.090Z,17.98
2022-12-09T17:03:26.871Z,17.85
2022-12-09T17:08:28.739Z,32.25
2022-12-09T17:13:30.913Z,19.50
2022-12-09T17:18:32.707Z,19.55
2022-12-09T17:23:39.605Z,24.95
2022-12-09T17:28:43.358Z,25.88
2022-12-09T17:33:45.435Z,19.35
2022-12-09T17:38:47.482Z,25.40
2022-12-09T17:43:49.438Z,24.27
2022-12-09T17:48:51.248Z,19.85
2022-12-09T17:53:53.078Z,20.67
2022-12-09T17:58:59.774Z,20.25
2022-12-09T18:04:07.896Z,18.23
2022-12-09T18:09:13.199Z,19.95
2022-12-09T18:14:16.209Z,21.70
2022-12-09T18:19:20.244Z,19.95
2022-12-09T18:24:22.210Z,21.65
2022-12-09T18:29:24.798Z,20.23
2022-12-09T18:34:28.114Z,19.90
2022-12-09T18:39:29.938Z,22.15
2022-12-09T18:44:31.692Z,20.08
2022-12-09T18:49:33.786Z,23.00
2022-12-09T18:54:36.559Z,22.55
2022-12-09T18:59:38.290Z,26.10
2022-12-09T19:04:40.029Z,24.08
2022-12-09T19:09:42.082Z,23.02
2022-12-09T19:14:43.835Z,23.55
2022-12-09T19:19:47.256Z,25.83
2022-12-09T19:24:49.048Z,25.48
2022-12-09T19:29:50.834Z,29.08
2022-12-09T19:34:52.900Z,23.63
2022-12-09T19:39:54.641Z,23.17
2022-12-09T19:45:06.443Z,24.77
2022-12-09T19:50:10.114Z,23.77
2022-12-09T19:55:13.423Z,25.13
2022-12-09T20:00:15.652Z,27.35
2022-12-09T20:05:18.103Z,23.17
2022-12-09T20:10:19.850Z,24.05
2022-12-09T20:15:21.598Z,25.20
2022-12-09T20:20:23.423Z,24.25
2022-12-09T20:25:25.186Z,24.33
2022-12-09T20:30:28.119Z,22.40
2022-12-09T20:35:29.920Z,23.23
2022-12-09T20:40:32.750Z,23.75
2022-12-09T20:45:39.166Z,24.27
2022-12-09T20:50:41.030Z,24.75
2022-12-09T20:55:42.775Z,26.45
2022-12-09T21:00:44.538Z,26.08
2022-12-09T21:05:47.036Z,25.73
2022-12-09T21:10:49.002Z,26.15
2022-12-09T21:15:50.840Z,26.92
2022-12-09T21:20:55.922Z,24.77
2022-12-09T21:26:04.640Z,26.40
2022-12-09T21:31:17.470Z,26.10
2022-12-09T21:36:23.464Z,25.38
2022-12-09T21:41:28.177Z,25.52
2022-12-09T21:46:34.940Z,26.38
2022-12-09T21:51:36.751Z,27.53
2022-12-09T21:56:38.548Z,25.95
2022-12-09T22:01:41.917Z,25.77
2022-12-09T22:06:49.135Z,26.02
2022-12-09T22:11:50.919Z,25.83
2022-12-09T22:16:52.946Z,25.90
2022-12-09T22:21:54.795Z,25.98
2022-12-09T22:26:56.651Z,26.15
2022-12-09T22:31:58.379Z,27.05
2022-12-09T22:37:14.913Z,26.40
2022-12-09T22:42:22.084Z,26.92
2022-12-09T22:47:23.986Z,26.52
2022-12-09T22:52:25.743Z,26.60
2022-12-09T22:57:27.617Z,26.63
2022-12-09T23:02:29.435Z,24.92
2022-12-09T23:07:31.246Z,27.05
2022-12-09T23:12:33.020Z,27.30
2022-12-09T23:17:34.846Z,26.92
2022-12-09T23:22:37.740Z,25.85
2022-12-09T23:27:39.590Z,26.75
2022-12-09T23:32:41.454Z,25.67
2022-12-09T23:37:43.196Z,25.20
2022-12-09T23:42:44.942Z,23.85
2022-12-09T23:47:46.992Z,25.92
2022-12-09T23:52:48.843Z,25.23
2022-12-09T23:57:50.585Z,24.30
